Orbital elements of COSMOS 249 DEB
| Launched | 19 October 1968 |
| Flight ended | – |
| Launch site | Tyuratam Missile and Space Center, Kazakhstan (Also known as Baikonur Cosmodrome) |
| Owner | Commonwealth of Independent States (former USSR) |
| NORAD ID | 18549 |
| Date fetched |
Epoch osculation |
Inc. [°] |
Ecc. | RA asc node [hr] |
Arg Peri. [°] |
Mean anom [°] |
Mean motion [rev/day] |
Abs. mag |
| Date fetched |
Epoch osculation |
Inc. [°] |
Ecc. | RA asc node [hr] |
Arg Peri. [°] |
Mean anom [°] |
Mean motion [rev/day] |
Abs. mag |
| 2026 May 05 17:57 | 2026 May 04 18:31:46 | 62.2208 | 0.06397 | 16.5128 | 268.8662 | 251.6747 | 13.02568 | – |
| 2026 May 04 17:57 | 2026 Apr 24 20:50:21 | 62.2239 | 0.06352 | 18.1631 | 266.7394 | 251.6747 | 13.02568 | – |
| 2026 May 03 17:57 | 2026 Apr 24 20:50:21 | 62.2239 | 0.06352 | 18.1631 | 266.7394 | 251.6747 | 13.02568 | – |
| 2026 May 02 17:57 | 2026 Apr 24 20:50:21 | 62.2239 | 0.06352 | 18.1631 | 266.7394 | 251.6747 | 13.02568 | – |
| 2026 May 01 17:56 | 2026 Apr 24 20:50:21 | 62.2239 | 0.06352 | 18.1631 | 266.7394 | 251.6747 | 13.02568 | – |
| 2026 Apr 30 17:56 | 2026 Apr 24 20:50:21 | 62.2239 | 0.06352 | 18.1631 | 266.7394 | 251.6747 | 13.02568 | – |
| 2026 Apr 29 17:57 | 2026 Apr 22 20:57:02 | 62.2231 | 0.06381 | 18.4954 | 266.1850 | 251.6747 | 13.02568 | – |
| 2026 Apr 28 17:56 | 2026 Apr 22 20:57:02 | 62.2231 | 0.06381 | 18.4954 | 266.1850 | 251.6747 | 13.02568 | – |
| 2026 Apr 27 17:58 | 2026 Apr 22 20:57:02 | 62.2231 | 0.06381 | 18.4954 | 266.1850 | 251.6747 | 13.02568 | – |
| 2026 Apr 26 17:58 | 2026 Apr 22 20:57:02 | 62.2231 | 0.06381 | 18.4954 | 266.1850 | 251.6747 | 13.02568 | – |
| 2026 Apr 25 17:58 | 2026 Apr 22 20:57:02 | 62.2231 | 0.06381 | 18.4954 | 266.1850 | 251.6747 | 13.02568 | – |
| 2026 Apr 24 17:59 | 2026 Apr 22 20:57:02 | 62.2231 | 0.06381 | 18.4954 | 266.1850 | 251.6747 | 13.02568 | – |
| 2026 Apr 23 17:57 | 2026 Apr 15 23:07:26 | 62.2226 | 0.06381 | 19.6467 | 264.6059 | 251.6747 | 13.02568 | – |
| 2026 Apr 22 17:57 | 2026 Apr 15 23:07:26 | 62.2226 | 0.06381 | 19.6467 | 264.6059 | 251.6747 | 13.02568 | – |
| 2026 Apr 21 17:57 | 2026 Apr 15 23:07:26 | 62.2226 | 0.06381 | 19.6467 | 264.6059 | 251.6747 | 13.02568 | – |
| 2026 Apr 20 17:57 | 2026 Apr 15 23:07:26 | 62.2226 | 0.06381 | 19.6467 | 264.6059 | 251.6747 | 13.02568 | – |
| 2026 Apr 19 17:58 | 2026 Apr 15 23:07:26 | 62.2226 | 0.06381 | 19.6467 | 264.6059 | 251.6747 | 13.02568 | – |
| 2026 Apr 18 17:56 | 2026 Apr 10 01:18:00 | 62.2234 | 0.06384 | 20.6313 | 263.2773 | 251.6747 | 13.02568 | – |
| 2026 Apr 16 17:57 | 2026 Apr 10 01:18:00 | 62.2234 | 0.06384 | 20.6313 | 263.2773 | 251.6747 | 13.02568 | – |
| 2026 Apr 14 17:57 | 2026 Apr 10 01:18:00 | 62.2234 | 0.06384 | 20.6313 | 263.2773 | 251.6747 | 13.02568 | – |
| 2026 Apr 13 17:57 | 2026 Apr 10 01:18:00 | 62.2234 | 0.06384 | 20.6313 | 263.2773 | 251.6747 | 13.02568 | – |
| 2026 Apr 12 17:57 | 2026 Apr 08 01:21:43 | 62.2245 | 0.06386 | 20.9642 | 262.8227 | 251.6747 | 13.02568 | – |
| 2026 Apr 11 17:57 | 2026 Apr 08 01:21:43 | 62.2245 | 0.06386 | 20.9642 | 262.8227 | 251.6747 | 13.02568 | – |
| 2026 Apr 10 17:58 | 2026 Apr 08 01:21:43 | 62.2245 | 0.06386 | 20.9642 | 262.8227 | 251.6747 | 13.02568 | – |
| 2026 Apr 09 18:01 | 2026 Apr 08 01:21:43 | 62.2245 | 0.06386 | 20.9642 | 262.8227 | 251.6747 | 13.02568 | – |
| 2026 Apr 08 17:57 | 2026 Apr 08 01:21:43 | 62.2245 | 0.06386 | 20.9642 | 262.8227 | 251.6747 | 13.02568 | – |